sensor_id;sensor_type;location;lat;lon;timestamp;pressure;altitude;pressure_sealevel;temperature;humidity
79461;BME280;68929;42.666;23.324;2023-12-04T00:00:58;95003.34;;;5.71;55.10
79461;BME280;68929;42.666;23.324;2023-12-04T00:03:24;95000.47;;;5.04;61.04
79461;BME280;68929;42.666;23.324;2023-12-04T00:05:49;95022.22;;;4.66;58.09
79461;BME280;68929;42.666;23.324;2023-12-04T00:08:14;94988.69;;;3.82;61.91
79461;BME280;68929;42.666;23.324;2023-12-04T00:10:40;94999.84;;;5.02;56.83
79461;BME280;68929;42.666;23.324;2023-12-04T00:13:05;95017.03;;;5.05;55.34
79461;BME280;68929;42.666;23.324;2023-12-04T00:15:31;94997.84;;;5.57;52.17
79461;BME280;68929;42.666;23.324;2023-12-04T00:17:56;95019.00;;;5.03;61.67
79461;BME280;68929;42.666;23.324;2023-12-04T00:20:22;95037.22;;;4.80;59.27
79461;BME280;68929;42.666;23.324;2023-12-04T00:22:47;95039.31;;;4.22;59.81
79461;BME280;68929;42.666;23.324;2023-12-04T00:25:13;95029.59;;;4.70;56.71
79461;BME280;68929;42.666;23.324;2023-12-04T00:27:38;95025.63;;;3.87;59.44
79461;BME280;68929;42.666;23.324;2023-12-04T00:30:04;95044.75;;;4.12;60.19
79461;BME280;68929;42.666;23.324;2023-12-04T00:32:31;95051.38;;;4.55;58.71
79461;BME280;68929;42.666;23.324;2023-12-04T00:34:57;95030.66;;;4.84;51.65
79461;BME280;68929;42.666;23.324;2023-12-04T00:37:22;95031.75;;;4.59;60.71
79461;BME280;68929;42.666;23.324;2023-12-04T00:39:48;95046.53;;;4.91;50.25
79461;BME280;68929;42.666;23.324;2023-12-04T00:42:13;95066.72;;;3.29;53.39
79461;BME280;68929;42.666;23.324;2023-12-04T00:44:39;95083.66;;;3.75;59.08
79461;BME280;68929;42.666;23.324;2023-12-04T00:47:04;95064.41;;;3.26;64.39
79461;BME280;68929;42.666;23.324;2023-12-04T00:49:30;95059.13;;;4.24;60.73
79461;BME280;68929;42.666;23.324;2023-12-04T00:51:55;95072.69;;;4.12;63.48
79461;BME280;68929;42.666;23.324;2023-12-04T00:54:20;95033.44;;;4.44;58.07
79461;BME280;68929;42.666;23.324;2023-12-04T00:56:46;95085.31;;;4.95;57.83
79461;BME280;68929;42.666;23.324;2023-12-04T00:59:11;95063.34;;;5.04;58.99
79461;BME280;68929;42.666;23.324;2023-12-04T01:01:37;95080.63;;;5.60;55.86
79461;BME280;68929;42.666;23.324;2023-12-04T01:04:03;95072.41;;;6.68;56.90
79461;BME280;68929;42.666;23.324;2023-12-04T01:06:29;95086.22;;;5.18;56.06
79461;BME280;68929;42.666;23.324;2023-12-04T01:08:55;95084.88;;;5.92;57.59
79461;BME280;68929;42.666;23.324;2023-12-04T01:11:22;95058.16;;;4.96;52.57
79461;BME280;68929;42.666;23.324;2023-12-04T01:13:49;95092.25;;;4.72;62.93
79461;BME280;68929;42.666;23.324;2023-12-04T01:16:14;95076.63;;;4.32;50.38
79461;BME280;68929;42.666;23.324;2023-12-04T01:18:41;95067.13;;;4.39;59.76
79461;BME280;68929;42.666;23.324;2023-12-04T01:21:07;95088.75;;;4.17;58.55
79461;BME280;68929;42.666;23.324;2023-12-04T01:23:34;95076.19;;;4.83;58.66
79461;BME280;68929;42.666;23.324;2023-12-04T01:26:00;95084.00;;;5.68;55.82
79461;BME280;68929;42.666;23.324;2023-12-04T01:28:26;95071.50;;;5.09;48.66
79461;BME280;68929;42.666;23.324;2023-12-04T01:30:51;95074.25;;;5.54;63.77
79461;BME280;68929;42.666;23.324;2023-12-04T01:33:16;95052.69;;;5.98;57.55
79461;BME280;68929;42.666;23.324;2023-12-04T01:35:42;95077.22;;;6.65;54.89
79461;BME280;68929;42.666;23.324;2023-12-04T01:38:07;95071.00;;;6.43;52.75
79461;BME280;68929;42.666;23.324;2023-12-04T01:40:34;95072.81;;;5.75;56.97
79461;BME280;68929;42.666;23.324;2023-12-04T01:42:59;95092.00;;;6.95;53.26
79461;BME280;68929;42.666;23.324;2023-12-04T01:45:25;95090.00;;;5.54;54.41
79461;BME280;68929;42.666;23.324;2023-12-04T01:47:50;95097.09;;;4.99;60.07
79461;BME280;68929;42.666;23.324;2023-12-04T01:50:16;95062.13;;;5.53;53.50
79461;BME280;68929;42.666;23.324;2023-12-04T01:52:42;95059.19;;;5.18;52.63
79461;BME280;68929;42.666;23.324;2023-12-04T01:55:09;95095.84;;;5.64;58.25
79461;BME280;68929;42.666;23.324;2023-12-04T01:57:35;95107.56;;;5.77;57.01
79461;BME280;68929;42.666;23.324;2023-12-04T02:00:01;95095.38;;;4.67;48.76
79461;BME280;68929;42.666;23.324;2023-12-04T02:02:29;95102.94;;;5.09;54.91
79461;BME280;68929;42.666;23.324;2023-12-04T02:04:59;95091.00;;;3.95;57.62
79461;BME280;68929;42.666;23.324;2023-12-04T02:07:25;95107.84;;;3.19;52.82
79461;BME280;68929;42.666;23.324;2023-12-04T02:09:51;95111.00;;;2.20;55.06
79461;BME280;68929;42.666;23.324;2023-12-04T02:12:17;95102.22;;;2.47;56.06
79461;BME280;68929;42.666;23.324;2023-12-04T02:14:42;95101.81;;;4.09;67.67
79461;BME280;68929;42.666;23.324;2023-12-04T02:17:08;95115.22;;;5.17;63.35
79461;BME280;68929;42.666;23.324;2023-12-04T02:19:35;95130.28;;;4.44;57.31
79461;BME280;68929;42.666;23.324;2023-12-04T02:22:00;95113.59;;;5.16;55.05
79461;BME280;68929;42.666;23.324;2023-12-04T02:24:26;95119.47;;;4.23;51.35
79461;BME280;68929;42.666;23.324;2023-12-04T02:26:55;95116.25;;;3.47;57.69
79461;BME280;68929;42.666;23.324;2023-12-04T02:29:30;95127.31;;;4.47;65.39
79461;BME280;68929;42.666;23.324;2023-12-04T02:31:57;95106.41;;;4.15;61.99
79461;BME280;68929;42.666;23.324;2023-12-04T02:34:24;95122.75;;;4.33;59.05
79461;BME280;68929;42.666;23.324;2023-12-04T02:36:50;95103.31;;;5.06;59.22
79461;BME280;68929;42.666;23.324;2023-12-04T02:39:16;95130.94;;;4.30;50.23
79461;BME280;68929;42.666;23.324;2023-12-04T02:41:42;95125.53;;;4.23;58.62
79461;BME280;68929;42.666;23.324;2023-12-04T02:44:07;95079.50;;;5.16;62.13
79461;BME280;68929;42.666;23.324;2023-12-04T02:46:33;95115.22;;;6.17;49.72
79461;BME280;68929;42.666;23.324;2023-12-04T02:48:58;95137.94;;;6.99;55.23
79461;BME280;68929;42.666;23.324;2023-12-04T02:51:24;95128.50;;;6.15;53.23
79461;BME280;68929;42.666;23.324;2023-12-04T02:53:51;95131.84;;;4.85;53.81
79461;BME280;68929;42.666;23.324;2023-12-04T02:56:17;95126.28;;;4.88;54.27
79461;BME280;68929;42.666;23.324;2023-12-04T02:58:42;95135.16;;;4.71;48.44
79461;BME280;68929;42.666;23.324;2023-12-04T03:01:08;95092.50;;;6.01;58.73
79461;BME280;68929;42.666;23.324;2023-12-04T03:03:33;95113.09;;;5.59;48.88
79461;BME280;68929;42.666;23.324;2023-12-04T03:05:58;95134.63;;;6.90;53.30
79461;BME280;68929;42.666;23.324;2023-12-04T03:08:24;95128.09;;;5.34;50.18
79461;BME280;68929;42.666;23.324;2023-12-04T03:10:49;95119.47;;;4.23;61.57
79461;BME280;68929;42.666;23.324;2023-12-04T03:13:15;95123.94;;;5.01;59.42
79461;BME280;68929;42.666;23.324;2023-12-04T03:15:40;95113.69;;;4.67;49.81
79461;BME280;68929;42.666;23.324;2023-12-04T03:18:06;95110.16;;;5.15;47.74
79461;BME280;68929;42.666;23.324;2023-12-04T03:20:34;95110.97;;;4.04;59.08
79461;BME280;68929;42.666;23.324;2023-12-04T03:22:59;95136.47;;;4.27;51.54
79461;BME280;68929;42.666;23.324;2023-12-04T03:25:25;95119.78;;;2.62;51.30
79461;BME280;68929;42.666;23.324;2023-12-04T03:27:50;95136.28;;;3.30;56.25
79461;BME280;68929;42.666;23.324;2023-12-04T03:30:16;95141.84;;;4.65;56.99
79461;BME280;68929;42.666;23.324;2023-12-04T03:32:41;95138.09;;;4.68;59.30
79461;BME280;68929;42.666;23.324;2023-12-04T03:35:07;95123.00;;;4.86;55.13
79461;BME280;68929;42.666;23.324;2023-12-04T03:37:32;95147.63;;;4.61;56.85
79461;BME280;68929;42.666;23.324;2023-12-04T03:39:58;95146.91;;;4.91;57.10
79461;BME280;68929;42.666;23.324;2023-12-04T03:42:23;95135.94;;;4.88;49.49
79461;BME280;68929;42.666;23.324;2023-12-04T03:44:49;95151.25;;;5.61;50.85
79461;BME280;68929;42.666;23.324;2023-12-04T03:47:14;95144.94;;;5.79;52.77
79461;BME280;68929;42.666;23.324;2023-12-04T03:49:40;95148.66;;;5.53;56.71
79461;BME280;68929;42.666;23.324;2023-12-04T03:52:05;95152.44;;;3.75;57.86
79461;BME280;68929;42.666;23.324;2023-12-04T03:54:31;95160.16;;;3.35;53.53
79461;BME280;68929;42.666;23.324;2023-12-04T03:56:56;95132.84;;;4.76;60.90
79461;BME280;68929;42.666;23.324;2023-12-04T03:59:21;95163.03;;;6.27;48.00
79461;BME280;68929;42.666;23.324;2023-12-04T04:01:47;95143.63;;;4.89;53.75
79461;BME280;68929;42.666;23.324;2023-12-04T04:04:12;95165.59;;;4.72;56.99
79461;BME280;68929;42.666;23.324;2023-12-04T04:06:38;95151.50;;;4.00;50.77
79461;BME280;68929;42.666;23.324;2023-12-04T04:09:04;95149.56;;;4.19;59.02
79461;BME280;68929;42.666;23.324;2023-12-04T04:11:30;95152.91;;;2.18;52.48
79461;BME280;68929;42.666;23.324;2023-12-04T04:13:56;95138.59;;;1.87;57.91
79461;BME280;68929;42.666;23.324;2023-12-04T04:16:21;95145.75;;;1.85;67.74
79461;BME280;68929;42.666;23.324;2023-12-04T04:18:46;95172.19;;;2.69;53.75
79461;BME280;68929;42.666;23.324;2023-12-04T04:21:12;95159.28;;;2.93;52.69
79461;BME280;68929;42.666;23.324;2023-12-04T04:23:37;95170.50;;;4.02;52.09
79461;BME280;68929;42.666;23.324;2023-12-04T04:26:03;95158.47;;;3.76;52.00
79461;BME280;68929;42.666;23.324;2023-12-04T04:28:28;95144.91;;;3.64;61.44
79461;BME280;68929;42.666;23.324;2023-12-04T04:30:54;95173.06;;;3.37;53.47
79461;BME280;68929;42.666;23.324;2023-12-04T04:33:19;95172.19;;;2.94;60.74
79461;BME280;68929;42.666;23.324;2023-12-04T04:35:45;95190.44;;;4.20;61.26
79461;BME280;68929;42.666;23.324;2023-12-04T04:38:10;95168.19;;;4.07;55.09
79461;BME280;68929;42.666;23.324;2023-12-04T04:40:36;95180.84;;;5.39;57.21
79461;BME280;68929;42.666;23.324;2023-12-04T04:43:01;95141.66;;;3.78;52.64
79461;BME280;68929;42.666;23.324;2023-12-04T04:45:27;95170.41;;;3.70;54.89
79461;BME280;68929;42.666;23.324;2023-12-04T04:47:52;95183.88;;;4.07;54.75
79461;BME280;68929;42.666;23.324;2023-12-04T04:50:18;95193.97;;;3.11;50.05
79461;BME280;68929;42.666;23.324;2023-12-04T04:52:43;95159.88;;;2.35;51.57
79461;BME280;68929;42.666;23.324;2023-12-04T04:55:08;95181.28;;;3.16;56.25
79461;BME280;68929;42.666;23.324;2023-12-04T04:57:34;95192.69;;;2.20;56.06
79461;BME280;68929;42.666;23.324;2023-12-04T04:59:59;95198.50;;;3.68;51.66
79461;BME280;68929;42.666;23.324;2023-12-04T05:02:25;95195.50;;;3.21;58.66
79461;BME280;68929;42.666;23.324;2023-12-04T05:04:50;95197.97;;;4.23;49.46
79461;BME280;68929;42.666;23.324;2023-12-04T05:07:16;95204.38;;;3.62;49.97
79461;BME280;68929;42.666;23.324;2023-12-04T05:09:41;95172.81;;;3.56;53.50
79461;BME280;68929;42.666;23.324;2023-12-04T05:12:07;95179.94;;;3.95;62.18
79461;BME280;68929;42.666;23.324;2023-12-04T05:14:32;95188.97;;;3.59;54.30
79461;BME280;68929;42.666;23.324;2023-12-04T05:16:58;95210.91;;;3.66;58.86
79461;BME280;68929;42.666;23.324;2023-12-04T05:19:23;95198.59;;;5.13;52.81
79461;BME280;68929;42.666;23.324;2023-12-04T05:21:49;95217.16;;;4.79;56.83
79461;BME280;68929;42.666;23.324;2023-12-04T05:24:14;95209.44;;;4.30;56.83
79461;BME280;68929;42.666;23.324;2023-12-04T05:26:40;95224.81;;;3.33;54.74
79461;BME280;68929;42.666;23.324;2023-12-04T05:29:05;95213.09;;;2.42;50.89
79461;BME280;68929;42.666;23.324;2023-12-04T05:31:31;95219.22;;;2.33;54.27
79461;BME280;68929;42.666;23.324;2023-12-04T05:33:56;95232.09;;;2.96;62.89
79461;BME280;68929;42.666;23.324;2023-12-04T05:36:22;95228.09;;;2.84;53.86
79461;BME280;68929;42.666;23.324;2023-12-04T05:38:47;95237.56;;;3.36;54.48
79461;BME280;68929;42.666;23.324;2023-12-04T05:41:13;95217.25;;;4.05;55.46
79461;BME280;68929;42.666;23.324;2023-12-04T05:43:38;95234.13;;;3.69;49.87
79461;BME280;68929;42.666;23.324;2023-12-04T05:46:04;95224.28;;;2.17;54.61
79461;BME280;68929;42.666;23.324;2023-12-04T05:48:29;95227.06;;;3.28;57.81
79461;BME280;68929;42.666;23.324;2023-12-04T05:50:55;95237.03;;;4.08;58.55
79461;BME280;68929;42.666;23.324;2023-12-04T05:53:20;95207.66;;;5.57;51.54
79461;BME280;68929;42.666;23.324;2023-12-04T05:55:46;95205.00;;;5.65;49.37
79461;BME280;68929;42.666;23.324;2023-12-04T05:58:11;95238.97;;;3.56;50.31
79461;BME280;68929;42.666;23.324;2023-12-04T06:00:37;95249.00;;;3.35;52.65
79461;BME280;68929;42.666;23.324;2023-12-04T06:03:06;95246.53;;;3.08;51.38
79461;BME280;68929;42.666;23.324;2023-12-04T06:05:31;95230.91;;;2.12;53.74
79461;BME280;68929;42.666;23.324;2023-12-04T06:07:57;95253.41;;;2.83;63.18
79461;BME280;68929;42.666;23.324;2023-12-04T06:10:23;95230.69;;;5.31;55.15
79461;BME280;68929;42.666;23.324;2023-12-04T06:12:48;95245.31;;;6.19;52.72
79461;BME280;68929;42.666;23.324;2023-12-04T06:15:14;95236.22;;;4.07;56.99
79461;BME280;68929;42.666;23.324;2023-12-04T06:17:39;95235.94;;;5.07;56.40
79461;BME280;68929;42.666;23.324;2023-12-04T06:20:06;95256.66;;;3.62;56.00
79461;BME280;68929;42.666;23.324;2023-12-04T06:22:32;95254.81;;;3.96;59.20
79461;BME280;68929;42.666;23.324;2023-12-04T06:24:59;95241.41;;;3.91;54.62
79461;BME280;68929;42.666;23.324;2023-12-04T06:27:25;95231.63;;;3.26;49.93
79461;BME280;68929;42.666;23.324;2023-12-04T06:29:52;95229.72;;;3.78;60.95
79461;BME280;68929;42.666;23.324;2023-12-04T06:32:19;95242.09;;;4.10;55.76
79461;BME280;68929;42.666;23.324;2023-12-04T06:34:45;95261.41;;;3.33;49.94
79461;BME280;68929;42.666;23.324;2023-12-04T06:37:12;95262.13;;;2.57;52.58
79461;BME280;68929;42.666;23.324;2023-12-04T06:39:39;95219.94;;;1.73;54.95
79461;BME280;68929;42.666;23.324;2023-12-04T06:42:06;95252.25;;;1.80;58.79
79461;BME280;68929;42.666;23.324;2023-12-04T06:44:33;95256.16;;;0.83;59.80
79461;BME280;68929;42.666;23.324;2023-12-04T06:47:07;95257.94;;;0.93;61.48
79461;BME280;68929;42.666;23.324;2023-12-04T06:49:33;95276.47;;;1.63;60.91
79461;BME280;68929;42.666;23.324;2023-12-04T06:52:00;95253.50;;;2.38;53.44
79461;BME280;68929;42.666;23.324;2023-12-04T06:54:26;95274.06;;;2.77;60.15
79461;BME280;68929;42.666;23.324;2023-12-04T06:56:52;95257.66;;;2.67;59.23
79461;BME280;68929;42.666;23.324;2023-12-04T06:59:18;95272.84;;;3.66;59.88
79461;BME280;68929;42.666;23.324;2023-12-04T07:01:44;95255.75;;;4.61;54.35
79461;BME280;68929;42.666;23.324;2023-12-04T07:04:09;95266.41;;;3.27;54.23
79461;BME280;68929;42.666;23.324;2023-12-04T07:06:36;95266.72;;;2.98;59.45
79461;BME280;68929;42.666;23.324;2023-12-04T07:09:02;95286.50;;;3.85;50.23
79461;BME280;68929;42.666;23.324;2023-12-04T07:11:27;95249.94;;;4.01;49.87
79461;BME280;68929;42.666;23.324;2023-12-04T07:13:53;95289.59;;;4.31;57.74
79461;BME280;68929;42.666;23.324;2023-12-04T07:16:18;95296.59;;;3.80;50.01
79461;BME280;68929;42.666;23.324;2023-12-04T07:18:44;95295.19;;;4.52;50.98
79461;BME280;68929;42.666;23.324;2023-12-04T07:21:11;95272.31;;;4.78;51.44
79461;BME280;68929;42.666;23.324;2023-12-04T07:23:37;95277.97;;;2.98;51.13
79461;BME280;68929;42.666;23.324;2023-12-04T07:26:06;95288.44;;;4.33;50.18
79461;BME280;68929;42.666;23.324;2023-12-04T07:28:32;95277.44;;;4.14;57.73
79461;BME280;68929;42.666;23.324;2023-12-04T07:30:58;95312.56;;;3.18;52.08
79461;BME280;68929;42.666;23.324;2023-12-04T07:33:23;95310.31;;;3.23;61.25
79461;BME280;68929;42.666;23.324;2023-12-04T07:35:49;95300.63;;;2.90;52.54
79461;BME280;68929;42.666;23.324;2023-12-04T07:38:23;95312.78;;;2.46;52.58
79461;BME280;68929;42.666;23.324;2023-12-04T07:40:48;95201.91;;;2.76;60.18
79461;BME280;68929;42.666;23.324;2023-12-04T07:43:14;95282.09;;;4.36;54.38
79461;BME280;68929;42.666;23.324;2023-12-04T07:45:41;95305.22;;;4.72;54.46
79461;BME280;68929;42.666;23.324;2023-12-04T07:48:07;95291.44;;;3.29;50.03
79461;BME280;68929;42.666;23.324;2023-12-04T07:50:34;95293.16;;;2.60;54.45
79461;BME280;68929;42.666;23.324;2023-12-04T07:53:05;95304.22;;;3.40;62.33
79461;BME280;68929;42.666;23.324;2023-12-04T07:55:30;95298.72;;;4.19;56.69
79461;BME280;68929;42.666;23.324;2023-12-04T07:57:56;95287.97;;;3.54;48.85
79461;BME280;68929;42.666;23.324;2023-12-04T08:00:21;95312.22;;;4.64;50.62
79461;BME280;68929;42.666;23.324;2023-12-04T08:02:48;95290.09;;;3.92;51.84
79461;BME280;68929;42.666;23.324;2023-12-04T08:05:14;95274.34;;;2.74;49.24
79461;BME280;68929;42.666;23.324;2023-12-04T08:07:39;95287.69;;;2.88;56.65
79461;BME280;68929;42.666;23.324;2023-12-04T08:10:06;95304.88;;;2.56;54.62
79461;BME280;68929;42.666;23.324;2023-12-04T08:12:32;95317.81;;;2.30;50.78
79461;BME280;68929;42.666;23.324;2023-12-04T08:14:59;95323.72;;;2.85;56.65
79461;BME280;68929;42.666;23.324;2023-12-04T08:17:24;95298.75;;;2.82;49.40
79461;BME280;68929;42.666;23.324;2023-12-04T08:19:50;95313.19;;;2.24;50.46
79461;BME280;68929;42.666;23.324;2023-12-04T08:22:15;95294.75;;;3.39;57.97
79461;BME280;68929;42.666;23.324;2023-12-04T08:24:40;95294.31;;;3.26;48.68
79461;BME280;68929;42.666;23.324;2023-12-04T08:27:07;95297.97;;;4.00;54.16
79461;BME280;68929;42.666;23.324;2023-12-04T08:29:33;95313.22;;;3.71;50.10
79461;BME280;68929;42.666;23.324;2023-12-04T08:31:58;95305.81;;;3.33;46.66
79461;BME280;68929;42.666;23.324;2023-12-04T08:34:24;95316.31;;;2.27;50.84
79461;BME280;68929;42.666;23.324;2023-12-04T08:36:49;95287.22;;;4.12;50.20
79461;BME280;68929;42.666;23.324;2023-12-04T08:39:15;95285.91;;;4.07;49.65
79461;BME280;68929;42.666;23.324;2023-12-04T08:41:40;95311.47;;;5.99;44.13
79461;BME280;68929;42.666;23.324;2023-12-04T08:44:06;95323.63;;;6.00;42.21
79461;BME280;68929;42.666;23.324;2023-12-04T08:46:31;95317.81;;;5.09;41.84
79461;BME280;68929;42.666;23.324;2023-12-04T08:48:57;95244.69;;;3.26;48.42
79461;BME280;68929;42.666;23.324;2023-12-04T08:51:23;95264.69;;;3.35;47.83
79461;BME280;68929;42.666;23.324;2023-12-04T08:53:49;95305.97;;;3.32;49.32
79461;BME280;68929;42.666;23.324;2023-12-04T08:56:14;95320.44;;;2.83;52.15
79461;BME280;68929;42.666;23.324;2023-12-04T08:58:40;95316.69;;;2.32;49.52
79461;BME280;68929;42.666;23.324;2023-12-04T09:01:06;95315.88;;;2.32;49.59
79461;BME280;68929;42.666;23.324;2023-12-04T09:03:31;95290.63;;;2.68;49.15
79461;BME280;68929;42.666;23.324;2023-12-04T09:05:57;95287.59;;;4.25;45.75
79461;BME280;68929;42.666;23.324;2023-12-04T09:08:23;95302.94;;;4.12;52.36
79461;BME280;68929;42.666;23.324;2023-12-04T09:10:48;95263.78;;;4.52;54.18
79461;BME280;68929;42.666;23.324;2023-12-04T09:13:15;95300.16;;;5.27;54.49
79461;BME280;68929;42.666;23.324;2023-12-04T09:15:40;95295.84;;;4.46;44.22
79461;BME280;68929;42.666;23.324;2023-12-04T09:18:06;95293.47;;;4.19;45.93
79461;BME280;68929;42.666;23.324;2023-12-04T09:20:32;95301.00;;;3.46;48.31
79461;BME280;68929;42.666;23.324;2023-12-04T09:22:57;95297.03;;;3.68;47.06
79461;BME280;68929;42.666;23.324;2023-12-04T09:25:23;95281.47;;;3.33;53.91
79461;BME280;68929;42.666;23.324;2023-12-04T09:27:48;95266.41;;;3.52;51.85
79461;BME280;68929;42.666;23.324;2023-12-04T09:30:16;95287.66;;;4.49;47.77
79461;BME280;68929;42.666;23.324;2023-12-04T09:32:44;95262.31;;;3.91;46.83
79461;BME280;68929;42.666;23.324;2023-12-04T09:35:10;95268.81;;;3.79;48.48
79461;BME280;68929;42.666;23.324;2023-12-04T09:37:36;95280.81;;;4.64;53.72
79461;BME280;68929;42.666;23.324;2023-12-04T09:40:01;95241.19;;;5.23;46.77
79461;BME280;68929;42.666;23.324;2023-12-04T09:42:30;95272.47;;;5.01;45.32
79461;BME280;68929;42.666;23.324;2023-12-04T09:44:56;95286.06;;;5.12;46.14
79461;BME280;68929;42.666;23.324;2023-12-04T09:47:24;95269.91;;;5.63;44.67
79461;BME280;68929;42.666;23.324;2023-12-04T09:49:52;95252.72;;;6.08;46.58
79461;BME280;68929;42.666;23.324;2023-12-04T09:52:20;95272.00;;;4.81;43.55
79461;BME280;68929;42.666;23.324;2023-12-04T09:54:48;95257.41;;;4.54;52.86
79461;BME280;68929;42.666;23.324;2023-12-04T09:57:14;95245.13;;;4.87;46.08
79461;BME280;68929;42.666;23.324;2023-12-04T09:59:40;95268.38;;;4.98;47.29
79461;BME280;68929;42.666;23.324;2023-12-04T10:02:06;95223.78;;;4.18;45.00
79461;BME280;68929;42.666;23.324;2023-12-04T10:04:32;95255.97;;;3.94;47.78
79461;BME280;68929;42.666;23.324;2023-12-04T10:06:59;95224.19;;;3.39;45.44
79461;BME280;68929;42.666;23.324;2023-12-04T10:09:25;95241.88;;;3.87;55.24
79461;BME280;68929;42.666;23.324;2023-12-04T10:11:51;95253.59;;;5.37;48.45
79461;BME280;68929;42.666;23.324;2023-12-04T10:14:20;95220.47;;;6.30;44.97
79461;BME280;68929;42.666;23.324;2023-12-04T10:16:46;95259.03;;;5.12;41.42
79461;BME280;68929;42.666;23.324;2023-12-04T10:19:28;95256.41;;;3.81;45.51
79461;BME280;68929;42.666;23.324;2023-12-04T10:21:57;95232.56;;;3.92;52.13
79461;BME280;68929;42.666;23.324;2023-12-04T10:24:35;95263.44;;;5.27;44.59
79461;BME280;68929;42.666;23.324;2023-12-04T10:27:02;95251.72;;;6.17;48.58
79461;BME280;68929;42.666;23.324;2023-12-04T10:29:40;95252.97;;;7.19;42.54
79461;BME280;68929;42.666;23.324;2023-12-04T10:32:07;95237.72;;;6.47;40.76
79461;BME280;68929;42.666;23.324;2023-12-04T10:34:32;95227.25;;;5.86;42.79
79461;BME280;68929;42.666;23.324;2023-12-04T10:36:59;95213.56;;;5.51;40.92
79461;BME280;68929;42.666;23.324;2023-12-04T10:39:25;95233.81;;;5.19;42.06
79461;BME280;68929;42.666;23.324;2023-12-04T10:42:01;95225.66;;;5.68;47.91
79461;BME280;68929;42.666;23.324;2023-12-04T10:44:27;95202.53;;;6.79;48.06
79461;BME280;68929;42.666;23.324;2023-12-04T10:47:00;95230.31;;;7.91;39.90
79461;BME280;68929;42.666;23.324;2023-12-04T10:49:29;95212.03;;;7.02;42.06
79461;BME280;68929;42.666;23.324;2023-12-04T10:51:57;95225.84;;;6.59;39.11
79461;BME280;68929;42.666;23.324;2023-12-04T10:54:26;95188.72;;;6.17;42.81
79461;BME280;68929;42.666;23.324;2023-12-04T10:56:56;95211.88;;;7.18;38.92
79461;BME280;68929;42.666;23.324;2023-12-04T10:59:27;95202.34;;;6.80;47.44
79461;BME280;68929;42.666;23.324;2023-12-04T11:02:00;95208.94;;;8.51;43.51
79461;BME280;68929;42.666;23.324;2023-12-04T11:04:28;95208.25;;;8.07;37.72
79461;BME280;68929;42.666;23.324;2023-12-04T11:06:56;95177.94;;;8.53;44.90
79461;BME280;68929;42.666;23.324;2023-12-04T11:09:25;95198.19;;;8.89;39.30
79461;BME280;68929;42.666;23.324;2023-12-04T11:11:59;95203.94;;;8.99;42.66
79461;BME280;68929;42.666;23.324;2023-12-04T11:14:29;95217.47;;;8.32;42.82
79461;BME280;68929;42.666;23.324;2023-12-04T11:17:01;95187.78;;;7.30;40.70
79461;BME280;68929;42.666;23.324;2023-12-04T11:19:47;95220.56;;;7.04;46.99
79461;BME280;68929;42.666;23.324;2023-12-04T11:22:15;95213.47;;;8.36;41.16
79461;BME280;68929;42.666;23.324;2023-12-04T11:24:46;95178.72;;;7.47;41.99
79461;BME280;68929;42.666;23.324;2023-12-04T11:27:13;95167.81;;;7.50;44.91
79461;BME280;68929;42.666;23.324;2023-12-04T11:29:39;95195.28;;;8.41;40.48
79461;BME280;68929;42.666;23.324;2023-12-04T11:32:14;95158.22;;;7.28;40.06
79461;BME280;68929;42.666;23.324;2023-12-04T11:35:01;95185.50;;;7.70;45.95
79461;BME280;68929;42.666;23.324;2023-12-04T11:37:39;95177.69;;;8.27;45.41
79461;BME280;68929;42.666;23.324;2023-12-04T11:40:06;95172.69;;;8.74;44.80
79461;BME280;68929;42.666;23.324;2023-12-04T11:42:33;95173.16;;;9.06;42.83
79461;BME280;68929;42.666;23.324;2023-12-04T11:44:58;95149.72;;;8.68;37.76
79461;BME280;68929;42.666;23.324;2023-12-04T11:47:24;95161.50;;;8.94;43.20
79461;BME280;68929;42.666;23.324;2023-12-04T11:49:49;95161.69;;;9.54;41.99
79461;BME280;68929;42.666;23.324;2023-12-04T11:52:15;95145.72;;;10.09;42.25
79461;BME280;68929;42.666;23.324;2023-12-04T11:55:00;95162.69;;;9.87;37.23
79461;BME280;68929;42.666;23.324;2023-12-04T11:57:32;95153.31;;;9.44;44.02
79461;BME280;68929;42.666;23.324;2023-12-04T12:00:12;95160.00;;;9.40;39.19
79461;BME280;68929;42.666;23.324;2023-12-04T12:03:14;95159.63;;;8.88;39.57
79461;BME280;68929;42.666;23.324;2023-12-04T12:05:40;95149.22;;;8.37;40.38
79461;BME280;68929;42.666;23.324;2023-12-04T12:08:07;95155.50;;;8.00;41.76
79461;BME280;68929;42.666;23.324;2023-12-04T12:10:34;95159.63;;;8.45;43.99
79461;BME280;68929;42.666;23.324;2023-12-04T12:13:00;95141.69;;;8.76;43.11
79461;BME280;68929;42.666;23.324;2023-12-04T12:15:27;95150.53;;;9.99;42.33
79461;BME280;68929;42.666;23.324;2023-12-04T12:17:53;95114.41;;;10.06;42.08
79461;BME280;68929;42.666;23.324;2023-12-04T12:20:19;95125.44;;;10.16;35.78
79461;BME280;68929;42.666;23.324;2023-12-04T12:23:04;95137.44;;;9.72;41.23
79461;BME280;68929;42.666;23.324;2023-12-04T12:25:39;95137.00;;;9.27;37.13
79461;BME280;68929;42.666;23.324;2023-12-04T12:28:17;95129.56;;;8.19;41.43
79461;BME280;68929;42.666;23.324;2023-12-04T12:30:42;95142.56;;;8.62;40.63
79461;BME280;68929;42.666;23.324;2023-12-04T12:33:17;95115.72;;;8.73;42.78
79461;BME280;68929;42.666;23.324;2023-12-04T12:35:42;95131.25;;;8.90;38.32
79461;BME280;68929;42.666;23.324;2023-12-04T12:38:08;95108.91;;;8.85;39.29
79461;BME280;68929;42.666;23.324;2023-12-04T12:40:33;95125.41;;;9.22;42.34
79461;BME280;68929;42.666;23.324;2023-12-04T12:43:04;95113.28;;;9.34;40.61
79461;BME280;68929;42.666;23.324;2023-12-04T12:48:10;95102.56;;;8.52;40.35
79461;BME280;68929;42.666;23.324;2023-12-04T12:50:36;95083.63;;;8.70;43.95
79461;BME280;68929;42.666;23.324;2023-12-04T12:53:02;95119.44;;;9.47;43.52
79461;BME280;68929;42.666;23.324;2023-12-04T12:55:28;95103.53;;;9.75;41.47
79461;BME280;68929;42.666;23.324;2023-12-04T12:57:55;95091.19;;;9.41;42.80
79461;BME280;68929;42.666;23.324;2023-12-04T13:00:21;95059.34;;;9.49;39.39